Time;durP1;ratioP1;P1;durP2;ratioP2;P2;SDS_P1;SDS_P2;PMS_P1;PMS_P2;Temp;Humidity;BMP_temperature;BMP_pressure;BME280_temperature;BME280_humidity;BME280_pressure;Samples;Min_cycle;Max_cycle;Signal;HPM_P1;HPM_P2
2021/04/24 00:00:30;;;;;;;19.58;15.07;;;;;;;14.85;53.71;100568.28;5026675;28;20489;-20
2021/04/24 00:02:56;;;;;;;19.13;15.13;;;;;;;14.90;53.85;100567.59;5026703;28;20167;-21
2021/04/24 00:05:27;;;;;;;20.27;16.30;;;;;;;14.77;53.72;100548.00;5026657;28;20125;-22
2021/04/24 00:07:54;;;;;;;20.33;15.63;;;;;;;14.62;54.53;100563.75;5026811;28;20068;-21
2021/04/24 00:10:20;;;;;;;19.88;15.32;;;;;;;14.53;54.68;100555.19;5026642;28;20037;-22
2021/04/24 00:12:46;;;;;;;19.85;15.80;;;;;;;14.75;54.19;100560.84;5026509;28;20107;-22
2021/04/24 00:15:12;;;;;;;21.73;16.67;;;;;;;15.06;54.01;100570.38;5026519;28;20474;-21
2021/04/24 00:17:38;;;;;;;22.77;16.58;;;;;;;15.15;53.56;100576.19;5026569;28;20087;-22
2021/04/24 00:20:06;;;;;;;21.10;16.58;;;;;;;14.47;54.61;100567.69;5030674;28;20468;-21
2021/04/24 00:22:32;;;;;;;22.48;16.23;;;;;;;14.62;54.89;100582.53;5030278;28;20108;-22
2021/04/24 00:24:57;;;;;;;20.90;17.05;;;;;;;14.51;54.40;100568.03;5030291;28;20103;-21
2021/04/24 00:27:23;;;;;;;21.98;16.85;;;;;;;14.64;54.29;100558.97;5030386;28;20037;-22
2021/04/24 00:29:48;;;;;;;22.70;16.75;;;;;;;14.68;54.81;100565.50;5030138;28;20134;-21
2021/04/24 00:32:14;;;;;;;22.58;17.10;;;;;;;14.54;55.60;100550.66;5030121;28;20029;-21
2021/04/24 00:34:39;;;;;;;22.50;17.65;;;;;;;14.60;55.71;100558.59;5030106;28;20464;-21
2021/04/24 00:37:05;;;;;;;23.58;16.95;;;;;;;14.03;57.14;100553.72;5030548;28;20032;-22
2021/04/24 00:39:30;;;;;;;24.00;17.05;;;;;;;13.75;57.50;100538.28;5030285;28;20029;-21
2021/04/24 00:41:56;;;;;;;23.00;17.85;;;;;;;14.03;57.69;100569.81;5030422;28;20056;-21
2021/04/24 00:44:21;;;;;;;21.55;16.70;;;;;;;14.50;56.61;100568.25;5030094;28;20029;-21
2021/04/24 00:46:47;;;;;;;22.70;17.05;;;;;;;14.24;57.07;100570.31;5030066;28;20056;-22
2021/04/24 00:49:12;;;;;;;23.50;17.55;;;;;;;14.30;57.04;100558.66;5029835;28;20125;-23
2021/04/24 00:51:38;;;;;;;26.20;17.70;;;;;;;14.62;55.87;100542.28;5029929;28;20064;-22
2021/04/24 00:54:05;;;;;;;22.08;17.45;;;;;;;14.53;56.55;100557.88;5029811;28;20116;-21
2021/04/24 00:56:31;;;;;;;22.83;17.08;;;;;;;14.53;56.92;100559.75;5029800;28;20040;-22
2021/04/24 00:58:56;;;;;;;24.13;17.40;;;;;;;14.78;56.26;100557.66;5012066;28;20025;-22
2021/04/24 01:01:22;;;;;;;22.35;17.45;;;;;;;14.63;56.59;100557.34;5029846;28;20065;-22
2021/04/24 01:03:47;;;;;;;24.27;16.83;;;;;;;14.43;56.79;100553.09;5029627;28;20109;-22
2021/04/24 01:06:13;;;;;;;21.40;16.20;;;;;;;14.36;56.63;100527.41;5012139;28;20108;-22
2021/04/24 01:08:38;;;;;;;21.17;16.25;;;;;;;14.50;56.24;100569.06;5029203;28;20031;-22
2021/04/24 01:11:04;;;;;;;23.33;16.80;;;;;;;14.51;56.28;100553.81;5029693;28;20501;-20
2021/04/24 01:13:29;;;;;;;21.13;17.20;;;;;;;14.64;55.98;100557.09;5029714;28;20029;-21
2021/04/24 01:15:55;;;;;;;22.08;16.85;;;;;;;14.60;55.73;100547.88;5012018;28;20822;-21
2021/04/24 01:18:21;;;;;;;21.70;16.15;;;;;;;14.61;56.08;100564.81;5029635;28;20753;-22
2021/04/24 01:20:47;;;;;;;21.23;15.15;;;;;;;14.41;55.84;100539.09;5029449;28;20029;-21
2021/04/24 01:23:13;;;;;;;22.38;14.95;;;;;;;14.56;55.18;100556.63;5029456;28;20021;-22
2021/04/24 01:25:39;;;;;;;18.25;14.07;;;;;;;14.71;54.31;100559.69;5029115;28;20047;-22
2021/04/24 01:28:05;;;;;;;18.77;14.75;;;;;;;14.64;54.44;100550.91;5029084;28;20053;-22
2021/04/24 01:30:33;;;;;;;22.10;15.10;;;;;;;14.78;54.06;100576.47;5027934;28;20033;-22
2021/04/24 01:32:59;;;;;;;20.65;15.75;;;;;;;14.41;55.06;100552.50;5029095;28;20030;-22
2021/04/24 01:35:26;;;;;;;21.85;15.63;;;;;;;14.64;54.43;100548.22;5029253;28;20044;-22
2021/04/24 01:37:52;;;;;;;21.08;15.50;;;;;;;14.78;54.79;100581.03;5029174;28;20025;-22
2021/04/24 01:40:18;;;;;;;21.48;15.32;;;;;;;14.76;54.79;100573.19;5028876;28;20186;-22
2021/04/24 01:42:43;;;;;;;19.73;14.50;;;;;;;14.59;54.73;100553.50;5028654;28;20025;-22
2021/04/24 01:45:12;;;;;;;19.38;14.90;;;;;;;14.56;55.11;100572.72;5028852;28;20116;-22
2021/04/24 01:47:39;;;;;;;20.58;14.15;;;;;;;14.62;54.22;100556.50;5028518;28;20025;-22
2021/04/24 01:50:08;;;;;;;17.90;12.50;;;;;;;14.47;53.83;100564.19;5028872;28;20472;-22
2021/04/24 01:52:35;;;;;;;18.10;12.15;;;;;;;14.39;54.61;100573.38;5028457;28;20052;-22
2021/04/24 01:55:01;;;;;;;18.13;11.85;;;;;;;14.53;54.06;100567.81;5028653;28;20025;-22
2021/04/24 01:57:26;;;;;;;15.50;10.98;;;;;;;14.03;54.56;100572.50;5028497;28;20401;-22
2021/04/24 01:59:52;;;;;;;14.07;10.10;;;;;;;14.33;53.75;100576.19;5028582;28;20026;-21
2021/04/24 02:02:17;;;;;;;15.68;10.20;;;;;;;14.45;52.71;100555.53;5028595;28;20037;-21
2021/04/24 02:04:43;;;;;;;14.30;9.88;;;;;;;14.58;52.13;100565.25;5028458;28;20025;-21
2021/04/24 02:07:12;;;;;;;13.55;9.77;;;;;;;14.32;52.70;100578.03;5028817;28;20048;-21
2021/04/24 02:09:37;;;;;;;15.05;10.40;;;;;;;14.26;52.63;100565.53;5028052;28;20032;-22
2021/04/24 02:12:07;;;;;;;13.80;10.30;;;;;;;14.34;53.13;100575.94;5028203;28;20068;-22
2021/04/24 02:14:52;;;;;;;14.48;10.15;;;;;;;14.41;52.88;100586.56;5027900;28;20029;-22
2021/04/24 02:17:24;;;;;;;15.32;10.75;;;;;;;14.36;52.96;100589.13;5027864;28;20075;-22
2021/04/24 02:19:50;;;;;;;13.52;10.20;;;;;;;14.45;51.97;100583.19;5028381;28;20026;-22
2021/04/24 02:22:16;;;;;;;15.63;11.35;;;;;;;14.44;53.28;100578.88;5028161;28;20112;-22
2021/04/24 02:24:57;;;;;;;15.45;10.23;;;;;;;14.70;52.62;100606.34;5010182;28;20413;-22
2021/04/24 02:27:22;;;;;;;15.25;11.40;;;;;;;14.81;52.53;100608.22;5028202;28;20544;-22
2021/04/24 02:29:48;;;;;;;14.95;10.48;;;;;;;14.63;52.78;100609.16;5028230;28;20029;-21
2021/04/24 02:32:15;;;;;;;14.85;10.75;;;;;;;14.80;53.21;100603.91;5010604;28;20061;-21
2021/04/24 02:34:42;;;;;;;17.23;11.25;;;;;;;14.85;53.29;100604.03;5027824;28;20033;-20
2021/04/24 02:37:08;;;;;;;20.70;12.47;;;;;;;15.01;53.28;100607.03;5028106;28;20033;-22
2021/04/24 02:39:36;;;;;;;19.88;12.30;;;;;;;14.63;54.05;100600.28;5027973;28;20390;-21
2021/04/24 02:42:06;;;;;;;16.42;12.25;;;;;;;14.60;55.34;100596.19;5027869;28;20068;-21
2021/04/24 02:44:31;;;;;;;17.13;12.48;;;;;;;14.54;55.65;100607.00;5027764;28;20112;-21
2021/04/24 02:46:58;;;;;;;17.45;12.05;;;;;;;14.56;56.90;100595.00;5027887;28;20108;-22
2021/04/24 02:49:23;;;;;;;19.10;11.43;;;;;;;14.24;57.06;100605.19;5027805;28;20032;-21
2021/04/24 02:51:49;;;;;;;17.08;11.48;;;;;;;13.96;57.50;100587.06;5027469;28;20054;-21
2021/04/24 02:54:14;;;;;;;16.88;11.82;;;;;;;14.32;56.60;100615.59;5010276;28;20819;-21
2021/04/24 02:56:40;;;;;;;19.20;11.30;;;;;;;14.39;56.27;100588.66;5027144;28;20621;-23
2021/04/24 02:59:06;;;;;;;18.35;11.05;;;;;;;14.26;56.07;100611.97;5027645;28;20022;-22
2021/04/24 03:01:31;;;;;;;16.23;10.23;;;;;;;14.21;56.37;100600.28;5027607;28;20449;-22
2021/04/24 03:03:57;;;;;;;16.30;10.13;;;;;;;14.07;56.18;100621.13;5027407;28;20083;-22
2021/04/24 03:06:22;;;;;;;15.30;9.75;;;;;;;14.18;56.06;100616.84;5027247;28;20095;-22
2021/04/24 03:08:48;;;;;;;16.42;9.73;;;;;;;14.00;56.53;100615.06;5027396;28;20025;-23
2021/04/24 03:11:13;;;;;;;13.98;9.45;;;;;;;14.16;54.26;100617.09;5027160;28;20038;-22
2021/04/24 03:13:39;;;;;;;16.90;9.60;;;;;;;14.14;55.15;100618.34;5027351;28;20094;-22
2021/04/24 03:16:04;;;;;;;13.77;9.60;;;;;;;14.38;54.50;100620.03;5027431;28;20037;-22
2021/04/24 03:18:30;;;;;;;13.60;9.00;;;;;;;14.19;54.61;100621.16;5027243;28;20034;-22
2021/04/24 03:20:55;;;;;;;16.25;9.43;;;;;;;14.47;54.11;100618.66;5027096;28;20112;-21
2021/04/24 03:23:21;;;;;;;13.55;9.50;;;;;;;14.28;54.31;100598.31;5027307;28;20056;-21
2021/04/24 03:25:46;;;;;;;16.20;9.27;;;;;;;14.04;55.27;100613.56;5027398;28;20069;-21
2021/04/24 03:28:12;;;;;;;12.15;9.13;;;;;;;14.15;54.63;100622.66;5027306;28;20060;-22
2021/04/24 03:30:37;;;;;;;13.02;8.98;;;;;;;14.10;53.66;100620.69;5027008;28;20037;-22
2021/04/24 03:33:03;;;;;;;18.42;10.27;;;;;;;14.00;54.43;100607.81;5027539;28;20088;-22
2021/04/24 03:35:29;;;;;;;14.95;9.55;;;;;;;14.12;53.87;100629.31;5027180;28;20091;-22
2021/04/24 03:37:54;;;;;;;12.82;10.20;;;;;;;14.02;54.71;100619.13;5026955;28;20536;-22
2021/04/24 03:40:20;;;;;;;13.40;8.77;;;;;;;13.86;53.63;100614.41;5027209;28;20036;-22
2021/04/24 03:42:45;;;;;;;14.63;8.70;;;;;;;13.64;55.07;100625.59;5026903;28;20029;-22
2021/04/24 03:45:18;;;;;;;12.50;8.65;;;;;;;13.93;53.64;100628.53;5026990;28;20029;-22
2021/04/24 03:47:47;;;;;;;13.68;8.50;;;;;;;14.02;52.92;100643.28;5026510;28;20026;-22
2021/04/24 03:50:14;;;;;;;17.90;8.30;;;;;;;13.87;53.08;100634.81;5025926;28;20528;-22
2021/04/24 03:52:39;;;;;;;13.65;7.55;;;;;;;14.10;51.94;100636.78;5026775;28;20063;-22
2021/04/24 03:55:05;;;;;;;12.25;7.97;;;;;;;14.14;52.07;100643.31;5031136;28;20037;-22
2021/04/24 03:57:31;;;;;;;13.65;8.68;;;;;;;13.93;52.18;100628.53;5030589;28;20098;-23
2021/04/24 03:59:58;;;;;;;14.38;8.82;;;;;;;13.82;52.83;100648.09;5030913;28;20056;-22
2021/04/24 04:02:23;;;;;;;15.13;8.95;;;;;;;13.89;52.88;100640.75;5030722;28;20041;-22
2021/04/24 04:04:49;;;;;;;14.88;10.23;;;;;;;13.59;52.89;100660.31;5030532;28;20441;-22
2021/04/24 04:07:14;;;;;;;16.92;10.20;;;;;;;13.67;53.47;100656.53;5031125;28;20116;-21
2021/04/24 04:09:40;;;;;;;15.48;9.70;;;;;;;13.94;52.36;100664.22;5030657;28;20030;-22
2021/04/24 04:12:05;;;;;;;15.20;9.82;;;;;;;13.80;52.67;100656.34;5030570;28;20094;-22
2021/04/24 04:14:31;;;;;;;14.38;9.05;;;;;;;13.44;53.54;100667.91;5030798;28;20409;-22
2021/04/24 04:16:57;;;;;;;13.23;8.60;;;;;;;13.92;52.05;100664.44;5030509;28;20418;-23
2021/04/24 04:19:22;;;;;;;12.80;8.50;;;;;;;14.02;51.72;100663.91;5012765;28;20084;-20
2021/04/24 04:21:48;;;;;;;11.60;8.25;;;;;;;14.35;51.13;100671.50;5030834;28;20037;-21
2021/04/24 04:24:13;;;;;;;12.13;8.02;;;;;;;14.27;51.46;100672.63;5030630;28;20060;-20
2021/04/24 04:26:39;;;;;;;12.00;7.57;;;;;;;14.12;51.74;100674.91;5030415;28;20057;-22
2021/04/24 04:29:04;;;;;;;14.00;8.20;;;;;;;13.83;52.35;100673.84;5030314;28;20033;-23
2021/04/24 04:31:30;;;;;;;14.02;8.27;;;;;;;13.62;52.59;100680.47;5030211;28;20029;-22
2021/04/24 04:33:55;;;;;;;14.10;7.60;;;;;;;13.41;52.21;100685.25;5030360;28;20033;-22
2021/04/24 04:36:21;;;;;;;11.77;7.68;;;;;;;13.54;52.42;100668.19;5030120;28;20034;-21
2021/04/24 04:38:47;;;;;;;12.20;7.30;;;;;;;13.48;52.23;100665.59;5030097;28;20075;-22
2021/04/24 04:41:12;;;;;;;15.18;10.07;;;;;;;13.57;51.94;100651.69;5030218;28;20030;-22
2021/04/24 04:43:38;;;;;;;13.27;7.85;;;;;;;13.69;52.48;100667.00;5030073;28;20029;-22
2021/04/24 04:46:03;;;;;;;12.52;7.18;;;;;;;13.68;52.32;100676.09;5030120;28;20036;-21
2021/04/24 04:48:29;;;;;;;13.27;7.63;;;;;;;13.71;52.31;100664.91;5029964;28;20029;-22
2021/04/24 04:50:54;;;;;;;18.77;7.93;;;;;;;13.62;52.16;100667.91;5029779;28;20040;-21
2021/04/24 04:53:20;;;;;;;25.83;16.42;;;;;;;13.58;51.52;100685.47;5030041;28;20049;-22
2021/04/24 04:55:45;;;;;;;13.35;7.43;;;;;;;13.94;50.07;100680.31;5029949;28;20083;-21
2021/04/24 04:58:11;;;;;;;12.80;8.73;;;;;;;14.12;50.56;100687.47;5029997;28;20029;-21
2021/04/24 05:00:36;;;;;;;18.40;14.85;;;;;;;14.32;50.10;100689.91;5029603;28;20034;-21
2021/04/24 05:03:02;;;;;;;14.85;10.60;;;;;;;14.00;51.18;100682.09;5029955;28;20071;-22
2021/04/24 05:05:27;;;;;;;13.98;9.90;;;;;;;14.30;50.42;100692.81;5029637;28;20055;-22
2021/04/24 05:07:53;;;;;;;14.98;9.50;;;;;;;14.28;50.51;100686.84;5029491;28;20041;-22
2021/04/24 05:10:19;;;;;;;17.52;8.60;;;;;;;14.25;50.81;100693.50;5029664;28;20025;-22
2021/04/24 05:12:45;;;;;;;12.85;7.88;;;;;;;14.38;49.80;100699.72;5029188;28;20040;-21
2021/04/24 05:15:12;;;;;;;17.00;7.65;;;;;;;14.16;50.04;100692.19;5029294;28;20022;-22
2021/04/24 05:17:37;;;;;;;13.77;8.18;;;;;;;14.24;50.00;100688.34;5029427;28;20029;-22
2021/04/24 05:20:04;;;;;;;14.48;8.55;;;;;;;14.06;49.93;100684.69;5029283;28;20407;-22
2021/04/24 05:22:30;;;;;;;20.60;16.17;;;;;;;14.11;50.34;100688.53;5029389;28;20044;-22
2021/04/24 05:24:57;;;;;;;16.45;10.00;;;;;;;14.45;49.00;100690.53;5029015;28;20457;-21
2021/04/24 05:27:23;;;;;;;11.95;6.95;;;;;;;14.35;49.63;100692.94;5029266;28;20116;-22
2021/04/24 05:29:48;;;;;;;13.93;8.00;;;;;;;14.09;50.66;100702.19;5029089;28;20501;-22
2021/04/24 05:32:14;;;;;;;9.75;5.93;;;;;;;13.84;48.27;100710.34;5029039;28;20072;-22
2021/04/24 05:34:40;;;;;;;14.10;6.63;;;;;;;13.77;49.00;100717.63;5029092;28;20025;-22
2021/04/24 05:37:05;;;;;;;12.27;7.10;;;;;;;14.12;47.83;100698.22;5029100;28;20056;-22
2021/04/24 05:39:31;;;;;;;12.98;7.38;;;;;;;13.71;47.80;100708.63;5011370;28;20025;-20
2021/04/24 05:41:56;;;;;;;12.60;7.22;;;;;;;13.88;45.58;100714.19;5029190;28;20033;-23
2021/04/24 05:44:22;;;;;;;12.13;6.75;;;;;;;14.00;45.84;100715.09;5029088;28;20405;-21
2021/04/24 05:46:47;;;;;;;11.90;6.60;;;;;;;13.94;46.00;100715.19;5028868;28;20826;-22
2021/04/24 05:49:13;;;;;;;10.35;5.43;;;;;;;13.32;44.70;100681.22;5028725;28;20036;-21
2021/04/24 05:51:38;;;;;;;11.00;5.47;;;;;;;13.38;45.61;100717.84;5028670;28;20338;-22
2021/04/24 05:54:04;;;;;;;10.80;5.70;;;;;;;13.21;47.67;100717.53;5028836;28;20100;-21
2021/04/24 05:56:30;;;;;;;10.35;5.65;;;;;;;13.15;46.96;100715.75;5028371;28;20037;-23
2021/04/24 05:58:55;;;;;;;9.40;5.45;;;;;;;13.09;47.70;100708.59;5028759;28;20040;-22
2021/04/24 06:01:21;;;;;;;47.05;26.98;;;;;;;13.48;46.96;100708.47;5028596;28;20029;-22
2021/04/24 06:03:47;;;;;;;25.20;17.02;;;;;;;13.74;46.34;100721.56;5028383;28;20021;-22
2021/04/24 06:06:12;;;;;;;11.77;6.15;;;;;;;13.92;46.93;100710.03;5028593;28;20056;-22
2021/04/24 06:08:38;;;;;;;10.90;5.90;;;;;;;14.11;47.38;100710.81;5028235;28;20033;-22
2021/04/24 06:11:03;;;;;;;10.63;6.30;;;;;;;14.21;48.14;100726.38;5028566;28;20394;-22
2021/04/24 06:13:29;;;;;;;10.82;6.72;;;;;;;14.27;46.84;100725.47;5010822;28;20484;-21
2021/04/24 06:15:55;;;;;;;14.48;8.63;;;;;;;14.38;46.50;100716.63;5027685;28;20112;-20
2021/04/24 06:18:21;;;;;;;76.30;35.50;;;;;;;14.43;46.91;100710.59;5011439;28;20871;-21
2021/04/24 06:20:46;;;;;;;12.75;6.50;;;;;;;14.59;44.55;100727.97;5028236;28;20040;-21
2021/04/24 06:23:12;;;;;;;12.75;7.38;;;;;;;14.57;46.44;100730.88;5028594;28;20442;-29
2021/04/24 06:25:38;;;;;;;40.17;22.08;;;;;;;14.43;45.74;100726.69;5028471;28;20758;-22
2021/04/24 06:28:04;;;;;;;13.30;8.00;;;;;;;14.23;45.34;100737.69;5027778;28;20029;-22
2021/04/24 06:30:29;;;;;;;14.75;8.93;;;;;;;14.46;45.66;100740.50;5028083;28;20037;-21
2021/04/24 06:32:55;;;;;;;11.30;7.35;;;;;;;14.51;45.62;100739.00;5027793;28;20030;-21
2021/04/24 06:35:21;;;;;;;11.30;6.70;;;;;;;14.46;44.93;100740.50;5028018;28;20061;-22
2021/04/24 06:37:47;;;;;;;11.63;6.68;;;;;;;14.60;46.67;100745.69;5028012;28;20029;-22
2021/04/24 06:40:14;;;;;;;12.07;8.43;;;;;;;14.49;46.34;100738.41;5028060;28;20029;-22
2021/04/24 06:42:40;;;;;;;15.30;8.93;;;;;;;14.50;46.23;100734.66;5027410;28;20095;-22
2021/04/24 06:45:06;;;;;;;16.33;10.15;;;;;;;14.58;46.50;100737.03;5027902;28;20505;-21
2021/04/24 06:47:32;;;;;;;18.65;13.52;;;;;;;14.59;47.83;100738.69;5027843;28;20159;-22
2021/04/24 06:49:57;;;;;;;15.02;9.68;;;;;;;14.56;46.95;100728.41;5027768;28;20120;-21
2021/04/24 06:52:23;;;;;;;13.07;8.23;;;;;;;14.56;47.93;100733.78;5009945;28;20466;-22
2021/04/24 06:54:48;;;;;;;12.95;8.52;;;;;;;14.63;46.73;100745.25;5027364;28;20120;-21
2021/04/24 06:57:14;;;;;;;18.95;10.57;;;;;;;14.31;47.19;100732.03;5027456;28;20083;-21
2021/04/24 06:59:40;;;;;;;12.35;7.45;;;;;;;14.58;47.71;100750.47;5027337;28;20116;-21
2021/04/24 07:02:08;;;;;;;12.10;6.60;;;;;;;14.65;47.15;100727.03;5027435;28;20037;-21
2021/04/24 07:04:33;;;;;;;34.20;16.37;;;;;;;15.09;46.75;100748.25;5027442;28;20032;-20
2021/04/24 07:06:59;;;;;;;12.73;7.68;;;;;;;14.91;46.26;100754.50;5027710;28;20313;-21
2021/04/24 07:09:24;;;;;;;19.67;10.20;;;;;;;14.90;46.90;100750.22;5027728;28;20409;-21
2021/04/24 07:11:50;;;;;;;15.05;7.00;;;;;;;15.06;45.41;100742.28;5027534;28;20860;-22
2021/04/24 07:14:15;;;;;;;9.85;5.65;;;;;;;15.17;42.45;100751.41;5027408;28;20557;-23
2021/04/24 07:16:41;;;;;;;15.20;6.85;;;;;;;15.24;43.12;100767.41;5027207;28;20033;-22
2021/04/24 07:19:06;;;;;;;12.52;6.82;;;;;;;15.06;41.89;100769.16;5027371;28;20040;-22
2021/04/24 07:21:32;;;;;;;12.82;6.38;;;;;;;14.95;43.59;100763.75;5027293;28;20071;-21
2021/04/24 07:23:58;;;;;;;20.65;8.82;;;;;;;14.93;43.30;100765.84;5027184;28;20037;-22
2021/04/24 07:26:24;;;;;;;14.07;6.38;;;;;;;15.21;41.67;100763.31;5027174;28;20022;-22
2021/04/24 07:28:49;;;;;;;13.05;5.60;;;;;;;15.15;41.86;100772.31;5026622;28;20552;-22
2021/04/24 07:31:15;;;;;;;10.85;5.90;;;;;;;15.09;42.35;100772.41;5027128;28;20108;-22
2021/04/24 07:33:42;;;;;;;12.68;6.60;;;;;;;15.18;43.55;100757.59;5027314;28;20060;-22
2021/04/24 07:36:08;;;;;;;12.18;7.50;;;;;;;15.17;42.58;100755.97;5027121;28;20029;-21
2021/04/24 07:38:33;;;;;;;20.15;14.15;;;;;;;15.17;44.62;100764.84;5027027;28;20477;-21
2021/04/24 07:40:59;;;;;;;31.80;27.63;;;;;;;15.16;43.68;100771.28;5026919;28;20035;-22
2021/04/24 07:43:24;;;;;;;14.43;9.50;;;;;;;15.13;44.20;100766.34;5026964;28;20128;-20
2021/04/24 07:45:50;;;;;;;17.20;10.73;;;;;;;15.33;42.64;100766.03;5027373;28;20052;-21
2021/04/24 07:48:17;;;;;;;16.02;8.15;;;;;;;15.37;44.04;100769.88;5009591;28;20486;-21
2021/04/24 07:50:42;;;;;;;17.23;12.35;;;;;;;15.24;44.02;100767.41;5026958;28;20031;-20
2021/04/24 07:53:08;;;;;;;11.68;6.72;;;;;;;15.21;43.26;100771.38;5027016;28;20052;-22
2021/04/24 07:55:33;;;;;;;15.63;12.60;;;;;;;15.19;43.69;100746.59;5026893;28;20083;-22
2021/04/24 07:57:59;;;;;;;17.35;13.07;;;;;;;15.20;43.80;100772.44;5026711;28;20037;-21
2021/04/24 08:00:24;;;;;;;14.60;8.65;;;;;;;15.21;44.20;100778.63;5026793;28;20040;-22
2021/04/24 08:02:50;;;;;;;16.23;10.88;;;;;;;15.12;43.50;100753.97;5026781;28;20080;-22
2021/04/24 08:05:19;;;;;;;22.27;16.05;;;;;;;14.83;42.79;100755.66;5027104;28;20432;-21
2021/04/24 08:07:45;;;;;;;21.17;13.30;;;;;;;15.27;44.14;100772.31;5027132;28;20485;-21
2021/04/24 08:10:11;;;;;;;11.48;6.80;;;;;;;15.37;43.33;100779.81;5026872;28;20507;-21
2021/04/24 08:12:37;;;;;;;29.42;19.63;;;;;;;15.30;42.89;100754.91;5008707;28;20037;-22
2021/04/24 08:15:04;;;;;;;20.35;11.82;;;;;;;15.55;42.95;100795.00;5027051;28;20034;-22
2021/04/24 08:17:29;;;;;;;52.83;35.47;;;;;;;15.77;42.77;100792.56;5026886;28;20106;-21
2021/04/24 08:19:55;;;;;;;30.50;20.23;;;;;;;15.54;41.61;100783.44;5026936;28;20041;-22
2021/04/24 08:22:20;;;;;;;92.63;54.58;;;;;;;15.53;41.53;100776.44;5026757;28;20033;-21
2021/04/24 08:24:46;;;;;;;26.75;17.00;;;;;;;15.90;41.39;100783.44;5026398;28;20033;-21
2021/04/24 08:27:11;;;;;;;25.17;20.40;;;;;;;15.84;40.12;100782.50;5026688;28;20032;-21
2021/04/24 08:29:37;;;;;;;14.15;6.90;;;;;;;16.07;39.46;100779.75;5026515;28;20029;-21
2021/04/24 08:32:04;;;;;;;14.98;6.82;;;;;;;16.02;40.08;100776.97;5026853;28;20029;-21
2021/04/24 08:34:30;;;;;;;11.98;6.85;;;;;;;16.02;38.81;100768.91;5026799;28;20033;-20
2021/04/24 08:36:56;;;;;;;111.97;53.58;;;;;;;15.93;40.53;100759.56;5026524;28;20838;-21
2021/04/24 08:39:21;;;;;;;13.05;7.35;;;;;;;15.89;40.12;100773.72;5027751;28;20060;-21
2021/04/24 08:41:47;;;;;;;12.45;5.78;;;;;;;16.11;39.34;100760.47;5030174;28;20148;-22
2021/04/24 08:44:16;;;;;;;10.32;4.93;;;;;;;16.17;39.18;100754.94;5030003;28;20108;-21
2021/04/24 08:46:41;;;;;;;18.48;16.42;;;;;;;15.98;39.86;100765.06;5030250;28;20037;-22
2021/04/24 08:49:07;;;;;;;11.80;7.30;;;;;;;16.06;40.81;100756.63;5029816;28;20036;-22
2021/04/24 08:51:32;;;;;;;15.30;7.20;;;;;;;15.97;40.46;100738.38;5011947;28;20053;-22
2021/04/24 08:53:59;;;;;;;12.98;7.68;;;;;;;16.01;42.89;100732.28;5030025;28;20488;-22
2021/04/24 08:56:25;;;;;;;16.98;14.00;;;;;;;16.18;38.81;100744.97;5029595;28;20090;-22
2021/04/24 08:58:52;;;;;;;14.07;8.25;;;;;;;16.20;39.91;100737.50;5029599;28;20022;-22
2021/04/24 09:01:17;;;;;;;14.13;7.47;;;;;;;16.13;41.31;100736.81;5012357;28;20049;-22
2021/04/24 09:03:43;;;;;;;13.63;5.93;;;;;;;16.30;40.33;100724.22;5029895;28;20556;-21
2021/04/24 09:06:08;;;;;;;12.88;7.57;;;;;;;16.24;38.59;100728.72;5029751;28;20036;-22
2021/04/24 09:08:34;;;;;;;18.67;14.00;;;;;;;16.46;38.29;100731.53;5029257;28;20061;-21
2021/04/24 09:11:01;;;;;;;19.33;11.23;;;;;;;15.94;36.65;100720.06;5029468;28;20494;-22
2021/04/24 09:13:28;;;;;;;44.80;32.77;;;;;;;16.17;39.24;100727.22;5029832;28;20091;-21
2021/04/24 09:15:54;;;;;;;26.92;14.98;;;;;;;16.21;37.93;100706.84;5029636;28;20080;-21
2021/04/24 09:18:20;;;;;;;23.80;12.73;;;;;;;16.04;38.71;100713.00;5029521;28;20490;-21
2021/04/24 09:20:55;;;;;;;14.20;6.68;;;;;;;16.31;39.16;100706.22;5029126;28;20485;-21
2021/04/24 09:23:34;;;;;;;18.15;7.63;;;;;;;16.20;40.19;100699.81;5028816;28;20037;-21
2021/04/24 09:26:07;;;;;;;16.45;8.20;;;;;;;15.76;39.71;100678.00;5028840;28;20481;-23
2021/04/24 09:28:41;;;;;;;17.23;9.18;;;;;;;16.11;39.67;100682.44;5029055;28;20053;-20
2021/04/24 09:31:13;;;;;;;20.75;10.82;;;;;;;15.89;39.56;100687.66;5029132;28;20406;-21
2021/04/24 09:33:39;;;;;;;25.77;14.13;;;;;;;15.80;38.91;100669.19;5029262;28;20056;-21
2021/04/24 09:36:07;;;;;;;44.15;20.83;;;;;;;15.88;38.24;100689.53;5029150;28;20833;-22
2021/04/24 09:38:37;;;;;;;11.50;5.60;;;;;;;15.83;36.50;100665.22;5011707;28;20053;-21
2021/04/24 09:41:29;;;;;;;15.82;8.18;;;;;;;15.70;40.21;100681.59;5029014;28;20025;-21
2021/04/24 09:44:00;;;;;;;53.03;27.30;;;;;;;15.49;38.26;100662.38;5029026;28;20124;-21
2021/04/24 09:46:36;;;;;;;10.52;5.72;;;;;;;15.33;39.84;100676.53;5028736;28;20029;-22
2021/04/24 09:49:07;;;;;;;12.50;5.97;;;;;;;15.67;38.77;100681.03;5029225;28;20037;-21
2021/04/24 09:51:38;;;;;;;19.75;8.40;;;;;;;15.66;40.09;100674.00;5027660;28;20055;-21
2021/04/24 09:54:03;;;;;;;22.45;10.38;;;;;;;16.02;39.37;100688.19;5029003;28;20083;-22
2021/04/24 09:56:29;;;;;;;12.13;7.85;;;;;;;16.31;38.35;100680.13;5028641;28;20030;-21
2021/04/24 09:59:06;;;;;;;21.23;13.98;;;;;;;16.32;40.49;100681.75;5028294;28;20021;-22
2021/04/24 10:01:32;;;;;;;14.45;6.25;;;;;;;16.20;38.58;100686.34;5028719;28;20404;-22
2021/04/24 10:04:00;;;;;;;19.77;12.68;;;;;;;15.98;38.53;100662.84;5028599;28;20033;-21
2021/04/24 10:06:44;;;;;;;14.53;7.83;;;;;;;16.05;41.67;100676.94;5028467;28;20029;-22
2021/04/24 10:09:12;;;;;;;15.32;7.13;;;;;;;16.13;38.09;100677.63;5028509;28;20358;-21
2021/04/24 10:11:38;;;;;;;12.65;6.10;;;;;;;15.71;39.49;100680.53;5028269;28;20493;-21
2021/04/24 10:14:04;;;;;;;11.30;5.88;;;;;;;15.32;41.89;100662.25;5028761;28;20457;-22
2021/04/24 10:16:43;;;;;;;10.88;5.93;;;;;;;15.67;40.60;100675.66;5028411;28;20025;-22
2021/04/24 10:19:13;;;;;;;21.85;9.82;;;;;;;15.43;41.81;100663.31;5028664;28;20124;-21
2021/04/24 10:21:40;;;;;;;12.43;5.72;;;;;;;15.27;42.13;100671.03;5028427;28;20455;-21
2021/04/24 10:24:06;;;;;;;18.23;8.35;;;;;;;15.62;42.23;100672.84;5028298;28;20033;-21
2021/04/24 10:26:31;;;;;;;12.35;5.43;;;;;;;15.33;40.91;100679.22;5028186;28;20021;-21
2021/04/24 10:28:59;;;;;;;10.63;5.20;;;;;;;15.08;43.20;100666.84;5028101;28;20095;-21
2021/04/24 10:31:25;;;;;;;9.88;4.45;;;;;;;14.59;43.05;100663.53;5028289;28;20489;-21
2021/04/24 10:33:50;;;;;;;10.68;5.18;;;;;;;14.41;43.73;100677.81;5028183;28;20076;-21
2021/04/24 10:36:16;;;;;;;35.72;26.33;;;;;;;14.62;43.81;100681.84;5028101;28;20084;-21
2021/04/24 10:38:46;;;;;;;11.23;5.80;;;;;;;14.89;43.50;100660.75;5027789;28;20025;-23
2021/04/24 10:41:13;;;;;;;10.30;5.25;;;;;;;14.82;42.78;100670.81;4994598;28;20949;-22
2021/04/24 10:43:38;;;;;;;8.02;4.35;;;;;;;14.62;42.58;100681.84;5010348;28;20989;-24
2021/04/24 10:46:23;;;;;;;12.45;5.75;;;;;;;14.80;42.21;100676.38;5028305;28;20061;-23
2021/04/24 10:48:49;;;;;;;12.43;5.65;;;;;;;14.73;43.34;100661.44;5027269;28;20061;-22
2021/04/24 10:51:15;;;;;;;10.85;5.13;;;;;;;14.78;43.11;100669.63;5027540;28;20077;-22
2021/04/24 10:53:40;;;;;;;12.43;4.82;;;;;;;14.53;43.92;100680.53;5027939;28;20037;-21
2021/04/24 10:56:06;;;;;;;10.02;5.15;;;;;;;14.70;43.30;100672.66;5027665;28;20037;-22
2021/04/24 10:58:32;;;;;;;10.35;5.57;;;;;;;14.78;43.34;100667.75;5027379;28;20029;-19
2021/04/24 11:01:01;;;;;;;13.23;6.85;;;;;;;14.97;43.85;100678.38;5027419;28;20047;-21
2021/04/24 11:03:38;;;;;;;14.68;5.90;;;;;;;14.93;44.40;100685.28;5027094;28;20022;-21
2021/04/24 11:06:08;;;;;;;24.23;18.02;;;;;;;14.90;41.68;100653.53;5027789;28;20033;-21
2021/04/24 11:08:33;;;;;;;16.63;7.15;;;;;;;14.98;43.86;100682.72;5027185;28;20030;-22
2021/04/24 11:11:12;;;;;;;16.85;7.13;;;;;;;15.00;43.50;100691.38;5009772;28;20079;-21